Estación Meteorológica Peña el Pijo (Robertgarden) [ 09/24/17 17:50:37 CEST ]

Fecha Hora Presion(HPa) Temp (°C) Humedad % Rocio (°C) Viento ( m/s) Direccion Lluvia 1Hora(mm) Lluvia 24H(mm) LLuvia Total(mm)
2017-Aug-07 01:01:44 1013.500 19.8 71 14.4         1437.96
2017-Aug-07 02:01:44 1013.500 17.8 71 12.5         1437.96
2017-Aug-07 03:01:11 1013.100 16.6 72 11.5         1437.96
2017-Aug-07 04:01:10 1012.600 15.8 75 11.4         1437.96
2017-Aug-07 05:01:11 1012.400 14.9 78 11.1         1437.96
2017-Aug-07 06:01:11 1012.600 16.3 71 11.1         1437.96
2017-Aug-07 07:01:36 1012.300 17.1 59 9.0         1437.96
2017-Aug-07 08:01:56 1011.400 16.6 60 8.8         1437.96
2017-Aug-07 09:01:44 1011.300 19.9 59 11.6         1437.96
2017-Aug-07 10:01:50 1011.400 27.0 53 16.6         1437.96
2017-Aug-07 11:01:53 1011.400 31.9 29 11.6         1437.96
2017-Aug-07 12:02:02 1012.100 35.3 20 9.6         1437.96
2017-Aug-07 13:01:40 1012.100 37.3 19 9.6         1437.96
2017-Aug-07 14:01:50 1011.200 35.9 19 8.5         1437.96
2017-Aug-07 15:01:41 1010.900 38.1 15 6.3 0.8 WNW     1437.96
2017-Aug-07 16:01:57 1010.700 38.5 15 6.6         1437.96
2017-Aug-07 17:01:42 1011.800 35.9 15 4.5         1437.96
2017-Aug-07 18:01:48 1010.000 35.8 17 6.4         1437.96
2017-Aug-07 19:01:14 1009.800 35.9 15 5.5         1437.96
2017-Aug-07 20:02:05 1010.400 34.0 18 5.9         1437.96
2017-Aug-07 21:01:47 1010.500 30.9 28 10.1         1437.96
2017-Aug-07 22:01:48 1010.700 27.6 35 10.7         1437.96
2017-Aug-07 23:01:42 1011.400 25.3 40 10.8         1437.96

Temperatura Máxima:38°    Temperatura Mínima:14°
Presión Máxima:1013.500 Hpa    Presión Mínima:1009.800 Hpa


Volver